Time;durP1;ratioP1;P1;durP2;ratioP2;P2;SDS_P1;SDS_P2;PMS_P1;PMS_P2;Temp;Humidity;BMP_temperature;BMP_pressure;BME280_temperature;BME280_humidity;BME280_pressure;Samples;Min_cycle;Max_cycle;Signal;HPM_P1;HPM_P2
2022/01/30 00:00:57;;;;;;;22.50;5.18;;;;;;;4.37;87.91;102698.66;5055276;28;20048;-81
2022/01/30 00:03:23;;;;;;;22.95;4.55;;;;;;;4.33;87.94;102698.53;5054312;28;20434;-82
2022/01/30 00:05:48;;;;;;;29.77;4.97;;;;;;;4.36;87.64;102708.94;5041462;28;20037;-82
2022/01/30 00:08:14;;;;;;;25.75;6.82;;;;;;;4.36;87.40;102711.53;5042281;28;20056;-81
2022/01/30 00:10:40;;;;;;;26.17;5.15;;;;;;;4.41;87.71;102722.88;5054141;28;20029;-82
2022/01/30 00:13:09;;;;;;;30.35;5.95;;;;;;;4.46;87.33;102726.50;5055029;28;20017;-81
2022/01/30 00:15:39;;;;;;;24.27;3.90;;;;;;;4.38;87.18;102723.66;5041925;28;20037;-81
2022/01/30 00:18:28;;;;;;;25.55;5.25;;;;;;;4.37;87.06;102719.31;5035250;28;20026;-81
2022/01/30 00:21:05;;;;;;;23.00;4.60;;;;;;;4.37;87.01;102728.78;5034394;28;20044;-81
2022/01/30 00:23:32;;;;;;;25.17;5.03;;;;;;;4.33;87.40;102730.38;5033632;28;20100;-82
2022/01/30 00:25:59;;;;;;;23.30;4.45;;;;;;;4.26;87.22;102722.41;5048542;28;20025;-81
2022/01/30 00:28:26;;;;;;;29.02;4.93;;;;;;;4.20;87.35;102731.69;5054255;28;20116;-81
2022/01/30 00:30:53;;;;;;;22.17;4.53;;;;;;;4.18;87.44;102735.91;5054142;28;20033;-81
2022/01/30 00:33:18;;;;;;;31.08;4.97;;;;;;;4.11;87.75;102739.13;5049689;28;20018;-81
2022/01/30 00:35:43;;;;;;;24.75;4.63;;;;;;;4.02;88.17;102736.22;5035498;28;20549;-81
2022/01/30 00:38:15;;;;;;;33.15;4.82;;;;;;;3.96;88.40;102749.81;5036334;28;20148;-81
2022/01/30 00:40:42;;;;;;;32.55;5.18;;;;;;;3.94;88.58;102748.88;5054295;28;20516;-81
2022/01/30 00:43:08;;;;;;;19.58;4.40;;;;;;;3.88;88.68;102740.03;5054708;28;20025;-81
2022/01/30 00:45:34;;;;;;;26.98;4.90;;;;;;;3.80;88.75;102731.19;5041574;28;20477;-82
2022/01/30 00:47:59;;;;;;;25.73;4.65;;;;;;;3.84;88.68;102746.81;5034514;28;20032;-82
2022/01/30 00:50:25;;;;;;;27.38;5.22;;;;;;;3.86;89.08;102741.69;5033903;28;20025;-81
2022/01/30 00:52:53;;;;;;;25.15;4.80;;;;;;;3.87;88.80;102739.16;5038851;28;20112;-81
2022/01/30 00:55:20;;;;;;;23.30;4.85;;;;;;;3.83;89.22;102737.31;5046017;28;20056;-81
2022/01/30 00:57:45;;;;;;;22.08;5.10;;;;;;;3.81;89.23;102749.28;5033818;28;20485;-81
2022/01/30 01:00:11;;;;;;;27.00;5.45;;;;;;;3.80;89.89;102741.50;5033535;28;20053;-81
2022/01/30 01:02:37;;;;;;;27.77;4.82;;;;;;;3.72;89.84;102749.81;5033997;28;20022;-81
2022/01/30 01:05:05;;;;;;;27.52;5.15;;;;;;;3.60;90.29;102751.13;5034820;28;20025;-81
2022/01/30 01:07:32;;;;;;;24.02;4.95;;;;;;;3.52;90.42;102755.97;5033198;28;20064;-81
2022/01/30 01:10:12;;;;;;;22.52;4.53;;;;;;;3.50;90.71;102763.69;5034332;28;20167;-81
2022/01/30 01:21:00;;;;;;;;;;;;;;;3.41;91.23;102770.19;5033723;28;20044;-81
2022/01/30 01:23:33;;;;;;;25.60;4.30;;;;;;;3.41;92.11;102773.66;5033359;28;20007;-81
2022/01/30 01:26:00;;;;;;;32.60;5.10;;;;;;;3.32;92.20;102763.00;5033363;28;20369;-81
2022/01/30 01:28:26;;;;;;;26.08;4.65;;;;;;;3.28;92.47;102763.72;5038917;28;20087;-81
2022/01/30 01:30:53;;;;;;;22.27;4.63;;;;;;;3.24;92.32;102767.00;5053850;28;20138;-81
2022/01/30 01:33:19;;;;;;;26.33;5.85;;;;;;;3.21;92.83;102767.75;5042244;28;20774;-81
2022/01/30 01:35:44;;;;;;;29.40;4.65;;;;;;;3.12;92.87;102759.66;5043265;28;20029;-81
2022/01/30 01:38:12;;;;;;;24.45;4.95;;;;;;;3.18;93.18;102770.22;5042468;28;20048;-81
2022/01/30 01:40:41;;;;;;;32.50;5.30;;;;;;;3.23;92.88;102773.81;5032479;28;20076;-81
2022/01/30 01:43:07;;;;;;;25.67;4.38;;;;;;;3.21;92.76;102775.50;5033608;28;20030;-81
2022/01/30 01:45:39;;;;;;;26.25;4.32;;;;;;;3.23;93.10;102783.25;5040693;28;20432;-82
2022/01/30 01:48:11;;;;;;;27.90;4.65;;;;;;;3.21;93.14;102785.81;5052558;28;20028;-81
2022/01/30 01:50:39;;;;;;;26.90;4.80;;;;;;;3.10;92.98;102769.03;5052337;28;20419;-81
2022/01/30 01:53:10;;;;;;;18.48;4.82;;;;;;;3.14;93.15;102785.50;5043589;28;20017;-81
2022/01/30 01:55:40;;;;;;;33.08;5.05;;;;;;;3.11;93.30;102793.13;5039626;28;20489;-81
2022/01/30 01:58:05;;;;;;;21.65;4.40;;;;;;;3.05;93.70;102789.47;5052903;28;20036;-81
2022/01/30 02:00:31;;;;;;;27.42;4.03;;;;;;;2.95;94.00;102779.66;5052394;28;20028;-81
2022/01/30 02:02:57;;;;;;;28.90;4.38;;;;;;;2.87;94.40;102780.16;5044906;28;20107;-81
2022/01/30 02:05:23;;;;;;;30.90;4.88;;;;;;;2.84;94.25;102788.63;5038767;28;20465;-81
2022/01/30 02:10:45;;;;;;;30.65;5.47;;;;;;;2.75;95.11;102790.88;5039476;28;20120;-81
2022/01/30 02:24:31;;;;;;;22.08;4.38;;;;;;;2.57;96.29;102762.69;5049606;28;20044;-81
2022/01/30 02:26:56;;;;;;;24.95;4.65;;;;;;;2.51;96.46;102758.16;5033678;28;20042;-81
2022/01/30 02:29:22;;;;;;;32.33;5.03;;;;;;;2.52;96.50;102762.50;5031712;28;20021;-81
2022/01/30 02:31:48;;;;;;;37.10;5.80;;;;;;;2.49;97.03;102770.09;5032356;28;20492;-81
2022/01/30 02:34:13;;;;;;;21.10;4.90;;;;;;;2.50;96.97;102777.00;5032113;28;20030;-81
2022/01/30 02:36:44;;;;;;;23.67;5.05;;;;;;;2.45;97.05;102783.69;5032728;28;20059;-81
2022/01/30 02:39:10;;;;;;;31.13;5.50;;;;;;;2.36;97.28;102770.41;5032110;28;20097;-81
2022/01/30 02:41:37;;;;;;;33.83;4.43;;;;;;;2.31;96.90;102780.50;5032316;28;20545;-81
2022/01/30 02:44:50;;;;;;;32.22;5.28;;;;;;;2.30;98.10;102771.03;5031745;28;20100;-82
2022/01/30 02:46:54;;;;;;;26.40;4.75;;;;;;;2.29;97.98;102778.72;5038973;28;20033;-81
2022/01/30 02:52:05;;;;;;;23.25;4.72;;;;;;;2.30;98.57;102760.75;5045641;28;20515;-81
2022/01/30 02:54:31;;;;;;;24.80;4.43;;;;;;;2.35;98.29;102758.34;5041854;28;20086;-81
2022/01/30 02:56:58;;;;;;;33.80;4.70;;;;;;;2.45;98.37;102772.47;5033922;28;20493;-81
2022/01/30 02:59:24;;;;;;;30.95;5.82;;;;;;;2.48;98.23;102765.75;5031172;28;20025;-82
2022/01/30 03:01:50;;;;;;;22.80;4.75;;;;;;;2.58;97.35;102770.47;5031240;28;20481;-81
2022/01/30 03:04:16;;;;;;;20.10;4.18;;;;;;;2.55;97.25;102780.66;5032597;28;20033;-81
2022/01/30 03:06:43;;;;;;;19.17;4.45;;;;;;;2.55;97.18;102790.94;5032298;28;20034;-81
2022/01/30 03:09:09;;;;;;;30.95;4.82;;;;;;;2.53;97.47;102794.28;5032003;28;20033;-81
2022/01/30 03:11:35;;;;;;;34.95;4.88;;;;;;;2.53;97.08;102786.56;5031020;28;20057;-81
2022/01/30 03:14:01;;;;;;;21.45;4.53;;;;;;;2.52;97.64;102801.13;5036445;28;20051;-80
2022/01/30 03:16:26;;;;;;;20.35;4.50;;;;;;;2.45;97.78;102803.38;5051313;28;20053;-81
2022/01/30 03:18:52;;;;;;;31.27;4.72;;;;;;;2.44;97.87;102802.50;5050691;28;20431;-81
2022/01/30 03:21:18;;;;;;;26.42;3.90;;;;;;;2.40;97.96;102800.63;5031449;28;20087;-80
2022/01/30 03:23:43;;;;;;;26.95;4.90;;;;;;;2.40;97.88;102804.88;5032257;28;20025;-81
2022/01/30 03:26:10;;;;;;;33.58;5.25;;;;;;;2.48;98.63;102808.63;5049811;28;20384;-81
2022/01/30 03:28:38;;;;;;;22.58;4.32;;;;;;;2.64;98.95;102821.31;5051528;28;20041;-81
2022/01/30 03:31:06;;;;;;;26.80;4.93;;;;;;;2.72;98.16;102806.19;5051267;28;20037;-81
2022/01/30 03:33:32;;;;;;;26.75;4.82;;;;;;;2.91;98.19;102819.00;5050239;28;20021;-81
2022/01/30 03:35:58;;;;;;;31.10;5.50;;;;;;;2.99;97.72;102814.13;5034907;28;20029;-82
2022/01/30 03:38:24;;;;;;;26.55;6.25;;;;;;;3.07;97.19;102814.44;5031567;28;20029;-81
2022/01/30 03:40:49;;;;;;;27.10;5.45;;;;;;;3.17;97.36;102826.84;5030733;28;20029;-81
2022/01/30 03:43:16;;;;;;;30.58;5.03;;;;;;;3.24;97.16;102836.59;5031129;28;20523;-82
2022/01/30 03:45:42;;;;;;;26.40;5.93;;;;;;;3.29;97.54;102835.06;5042827;28;20155;-81
2022/01/30 03:48:07;;;;;;;24.70;4.97;;;;;;;3.34;96.96;102853.31;5048023;28;20141;-81
2022/01/30 03:50:33;;;;;;;31.67;5.45;;;;;;;3.35;96.80;102848.19;5051090;28;20485;-81
2022/01/30 03:52:59;;;;;;;30.52;5.75;;;;;;;3.38;96.65;102850.00;5051403;28;20488;-81
2022/01/30 03:55:24;;;;;;;22.55;5.13;;;;;;;3.41;96.51;102850.13;5035042;28;20039;-81
2022/01/30 03:57:50;;;;;;;22.20;4.45;;;;;;;3.41;96.51;102852.72;5031418;28;20522;-81
2022/01/30 04:00:16;;;;;;;27.90;4.40;;;;;;;3.38;96.29;102850.00;5031226;28;20021;-81
2022/01/30 04:02:42;;;;;;;26.20;5.57;;;;;;;3.39;96.58;102856.91;5040726;28;20140;-81
2022/01/30 04:05:07;;;;;;;26.42;4.22;;;;;;;3.40;96.49;102864.72;5032011;28;20036;-81
2022/01/30 04:07:33;;;;;;;25.38;5.45;;;;;;;3.43;96.29;102859.69;5031094;28;20033;-81
2022/01/30 04:09:59;;;;;;;31.50;5.65;;;;;;;3.49;95.68;102867.63;5030844;28;20033;-81
2022/01/30 04:12:24;;;;;;;22.77;5.60;;;;;;;3.52;95.76;102853.97;5032625;28;20542;-81
2022/01/30 04:14:50;;;;;;;21.92;4.97;;;;;;;3.55;95.15;102858.38;5043878;28;20045;-81
2022/01/30 04:17:18;;;;;;;27.80;4.53;;;;;;;3.64;95.31;102866.47;5053846;28;20039;-81
2022/01/30 04:19:43;;;;;;;31.65;5.00;;;;;;;3.68;95.02;102873.50;5054806;28;20021;-81
2022/01/30 04:22:08;;;;;;;26.92;4.38;;;;;;;3.70;94.72;102874.44;5053752;28;20115;-81
2022/01/30 04:24:34;;;;;;;28.88;4.50;;;;;;;3.71;94.01;102868.44;5053899;28;20028;-81
2022/01/30 04:26:59;;;;;;;35.72;4.50;;;;;;;3.78;93.50;102867.84;5053224;28;20029;-81
2022/01/30 04:29:24;;;;;;;22.98;4.22;;;;;;;3.82;93.17;102861.97;5051838;28;20061;-81
2022/01/30 04:31:50;;;;;;;25.85;4.60;;;;;;;3.80;93.81;102868.78;5054518;28;20495;-81
2022/01/30 04:34:17;;;;;;;29.15;5.20;;;;;;;3.87;92.96;102883.66;5051585;28;20025;-81
2022/01/30 04:37:00;;;;;;;24.55;5.03;;;;;;;3.85;92.53;102866.38;5033854;28;20108;-81
2022/01/30 04:53:15;;;;;;;;;;;;;;;3.98;92.24;102907.28;5035038;28;20044;-81
2022/01/30 04:56:56;;;;;;;26.65;4.43;;;;;;;3.92;91.41;102887.31;5046588;28;19921;-82
2022/01/30 04:58:52;;;;;;;20.45;3.78;;;;;;;3.92;91.84;102897.63;5035258;28;20086;-81
2022/01/30 05:01:33;;;;;;;24.45;4.72;;;;;;;3.84;91.91;102887.84;5053225;28;20025;-81
2022/01/30 05:04:19;;;;;;;22.17;4.10;;;;;;;3.77;91.42;102896.19;5034000;28;20491;-81
2022/01/30 05:09:26;;;;;;;21.08;3.67;;;;;;;3.48;91.86;102909.72;5034748;28;20068;-81
2022/01/30 05:11:52;;;;;;;18.98;3.28;;;;;;;3.39;92.13;102908.47;5033649;28;20101;-81
2022/01/30 05:14:20;;;;;;;25.42;4.72;;;;;;;3.31;92.40;102909.91;5040230;28;20049;-81
2022/01/30 05:16:46;;;;;;;21.13;3.95;;;;;;;3.17;92.83;102906.75;5053738;28;20032;-81
2022/01/30 05:19:12;;;;;;;20.33;3.80;;;;;;;3.12;93.22;102914.31;5052435;28;20040;-81
2022/01/30 05:21:38;;;;;;;26.75;4.50;;;;;;;3.00;93.18;102909.53;5033835;28;20041;-81
2022/01/30 05:24:04;;;;;;;21.40;3.30;;;;;;;2.89;93.92;102915.06;5033084;28;20362;-81
2022/01/30 05:26:31;;;;;;;29.10;3.90;;;;;;;2.83;94.13;102918.28;5032512;28;20064;-81
2022/01/30 05:28:57;;;;;;;26.15;3.65;;;;;;;2.71;94.53;102915.16;5033915;28;20109;-81
2022/01/30 05:31:22;;;;;;;26.60;4.28;;;;;;;2.62;94.86;102915.69;5050571;28;20539;-81
2022/01/30 05:33:48;;;;;;;24.45;4.00;;;;;;;2.56;94.87;102924.03;5050901;28;20033;-81
2022/01/30 05:36:13;;;;;;;20.13;3.20;;;;;;;2.52;95.18;102919.56;5052738;28;20028;-81
2022/01/30 05:38:39;;;;;;;23.30;4.22;;;;;;;2.45;95.25;102924.38;5053098;28;20456;-81
2022/01/30 05:41:04;;;;;;;19.05;3.53;;;;;;;2.42;95.69;102930.28;5052311;28;20029;-81
2022/01/30 05:43:32;;;;;;;21.38;3.75;;;;;;;2.39;95.53;102932.72;5052715;28;20093;-81
2022/01/30 05:46:12;;;;;;;26.55;4.35;;;;;;;2.40;95.26;102936.19;5034460;28;20108;-81
2022/01/30 05:48:37;;;;;;;25.92;3.45;;;;;;;2.38;96.08;102937.78;5033117;28;20034;-80
2022/01/30 05:51:03;;;;;;;21.48;3.50;;;;;;;2.38;95.69;102935.22;5047298;28;20029;-81
2022/01/30 05:53:28;;;;;;;19.17;3.50;;;;;;;2.33;96.01;102932.47;5052067;28;20025;-81
2022/01/30 05:55:54;;;;;;;19.63;3.83;;;;;;;2.31;95.87;102949.50;5036369;28;20030;-81
2022/01/30 05:58:19;;;;;;;23.27;3.97;;;;;;;2.25;96.02;102936.38;5033586;28;20036;-81
2022/01/30 06:00:44;;;;;;;20.52;3.90;;;;;;;2.23;95.86;102930.28;5032327;28;20033;-81
2022/01/30 06:03:09;;;;;;;21.60;3.55;;;;;;;2.21;95.62;102945.66;5032741;28;20111;-81
2022/01/30 06:05:35;;;;;;;22.92;3.78;;;;;;;2.22;95.54;102954.25;5038140;28;20392;-81
2022/01/30 06:08:10;;;;;;;21.33;4.22;;;;;;;2.17;96.17;102945.47;5052450;28;20082;-81
2022/01/30 06:10:35;;;;;;;27.92;4.10;;;;;;;2.13;95.53;102949.59;5052299;28;20029;-81
2022/01/30 06:13:00;;;;;;;27.27;4.10;;;;;;;2.13;95.88;102949.59;5049812;28;20041;-81
2022/01/30 06:15:26;;;;;;;21.50;3.92;;;;;;;2.13;96.52;102959.00;5031766;28;20472;-81
2022/01/30 06:17:51;;;;;;;24.38;3.78;;;;;;;2.08;95.92;102957.09;5032743;28;20037;-81
2022/01/30 06:20:16;;;;;;;20.85;3.67;;;;;;;2.06;96.23;102952.69;5047393;28;20391;-81
2022/01/30 06:22:42;;;;;;;17.35;3.13;;;;;;;2.16;96.50;102951.41;5051812;28;20108;-81
2022/01/30 06:25:08;;;;;;;20.73;3.97;;;;;;;2.32;95.55;102951.25;5050531;28;20029;-81
2022/01/30 06:27:34;;;;;;;21.38;3.25;;;;;;;2.44;95.25;102950.94;5051824;28;20067;-81
2022/01/30 06:29:59;;;;;;;21.85;3.47;;;;;;;2.55;95.04;102947.13;5047945;28;20079;-81
2022/01/30 06:32:24;;;;;;;17.13;3.75;;;;;;;2.68;94.31;102949.44;5032049;28;20104;-81
2022/01/30 06:34:50;;;;;;;27.65;3.72;;;;;;;2.74;93.94;102941.94;5037540;28;20029;-81
2022/01/30 06:37:15;;;;;;;18.85;3.05;;;;;;;2.83;93.56;102946.59;5051692;28;20060;-81
2022/01/30 06:39:41;;;;;;;17.58;3.13;;;;;;;2.84;93.57;102943.19;5045264;28;20021;-81
2022/01/30 06:42:06;;;;;;;15.82;3.65;;;;;;;2.97;92.85;102960.06;5032637;28;20037;-81
2022/01/30 06:44:32;;;;;;;22.35;3.08;;;;;;;3.01;92.79;102954.25;5031243;28;20069;-81
2022/01/30 06:46:57;;;;;;;22.10;3.25;;;;;;;3.08;92.36;102965.69;5032255;28;20068;-81
2022/01/30 06:49:22;;;;;;;14.05;3.30;;;;;;;3.11;92.06;102960.66;5031979;28;20022;-81
2022/01/30 06:51:48;;;;;;;20.45;3.58;;;;;;;3.11;92.13;102964.09;5031566;28;20029;-81
2022/01/30 06:54:14;;;;;;;27.20;3.63;;;;;;;3.13;92.54;102959.88;5031886;28;20041;-81
2022/01/30 06:56:39;;;;;;;22.85;3.60;;;;;;;3.13;92.34;102966.72;5050308;28;20040;-81
2022/01/30 06:59:05;;;;;;;24.90;3.58;;;;;;;3.15;92.37;102967.69;5038367;28;20033;-81
2022/01/30 07:01:30;;;;;;;19.50;3.15;;;;;;;3.17;92.33;102979.81;5048417;28;20052;-81
2022/01/30 07:03:55;;;;;;;13.88;3.17;;;;;;;3.11;92.02;102965.81;5051428;28;20029;-81
2022/01/30 07:06:20;;;;;;;17.05;3.17;;;;;;;3.06;92.21;102970.75;5049732;28;20533;-81
2022/01/30 07:08:46;;;;;;;20.48;3.00;;;;;;;2.92;92.09;102972.75;5044109;28;20025;-81
2022/01/30 07:11:11;;;;;;;16.58;3.47;;;;;;;2.85;92.55;102991.34;5043405;28;20025;-81
2022/01/30 07:13:36;;;;;;;20.42;2.92;;;;;;;2.75;93.04;102989.22;5051632;28;20115;-81
2022/01/30 07:16:02;;;;;;;23.08;3.30;;;;;;;2.62;93.47;102984.34;5038931;28;20108;-81
2022/01/30 07:18:27;;;;;;;26.20;3.65;;;;;;;2.54;93.40;102982.28;5030555;28;20033;-81
2022/01/30 07:20:52;;;;;;;16.85;3.08;;;;;;;2.55;93.54;102991.81;5039681;28;20029;-81
2022/01/30 07:23:18;;;;;;;22.48;3.40;;;;;;;2.52;93.39;102991.66;5050957;28;20036;-81
2022/01/30 07:25:44;;;;;;;12.35;3.03;;;;;;;2.51;93.39;102997.59;5048688;28;20433;-81
2022/01/30 07:28:10;;;;;;;18.23;3.17;;;;;;;2.46;93.64;103004.25;5051441;28;20028;-81
2022/01/30 07:30:36;;;;;;;21.35;3.78;;;;;;;2.36;93.87;102994.38;5050970;28;20441;-81
2022/01/30 07:33:03;;;;;;;23.95;2.88;;;;;;;2.38;93.81;103004.72;5050833;28;20108;-81
2022/01/30 07:35:28;;;;;;;18.40;3.17;;;;;;;2.34;94.00;103011.44;5043383;28;20112;-81
2022/01/30 07:37:53;;;;;;;18.80;2.72;;;;;;;2.34;93.87;103002.00;5031815;28;20104;-80
2022/01/30 07:40:19;;;;;;;17.02;2.80;;;;;;;2.34;94.28;103025.19;5031011;28;20032;-81
2022/01/30 07:42:44;;;;;;;23.77;3.92;;;;;;;2.28;94.35;103019.75;5049933;28;20269;-81
2022/01/30 07:45:10;;;;;;;19.42;3.63;;;;;;;2.28;94.51;103032.63;5045986;28;20046;-81
2022/01/30 07:47:35;;;;;;;25.77;3.50;;;;;;;2.27;94.36;103040.28;5052156;28;20029;-80
2022/01/30 07:50:00;;;;;;;15.63;3.45;;;;;;;2.20;95.05;103033.97;5055190;28;20029;-81
2022/01/30 07:52:29;;;;;;;15.90;2.63;;;;;;;2.16;94.80;103026.94;5053474;28;20369;-81
2022/01/30 07:54:54;;;;;;;20.80;4.43;;;;;;;2.19;94.61;103028.75;5036754;28;20187;-81
2022/01/30 07:57:19;;;;;;;19.90;3.03;;;;;;;2.20;95.33;103033.97;5055126;28;20104;-81
2022/01/30 07:59:45;;;;;;;13.85;3.13;;;;;;;2.16;94.93;103028.59;5055168;28;20120;-80
2022/01/30 08:02:10;;;;;;;20.25;3.00;;;;;;;2.15;95.45;103030.28;5054202;28;20025;-81
2022/01/30 08:04:36;;;;;;;25.13;3.75;;;;;;;2.20;94.97;103039.13;5043523;28;20029;-80
2022/01/30 08:07:01;;;;;;;16.00;2.72;;;;;;;2.19;94.98;103039.94;5034903;28;20033;-81
2022/01/30 08:09:27;;;;;;;22.38;3.92;;;;;;;2.20;95.37;103038.25;5034594;28;20037;-81
2022/01/30 08:11:53;;;;;;;26.90;3.70;;;;;;;2.26;94.62;103041.09;5035146;28;20131;-81
2022/01/30 08:14:18;;;;;;;15.65;3.33;;;;;;;2.34;94.54;103038.03;5038341;28;20079;-81
2022/01/30 08:16:43;;;;;;;23.83;3.65;;;;;;;2.39;93.67;103046.00;5054798;28;20033;-81
2022/01/30 08:19:09;;;;;;;19.15;3.35;;;;;;;2.40;94.03;103045.19;5054998;28;20043;-81
2022/01/30 08:21:34;;;;;;;30.98;6.05;;;;;;;2.43;93.39;103052.16;5054206;28;20380;-81
2022/01/30 08:23:59;;;;;;;22.80;3.53;;;;;;;2.46;93.66;103054.88;5052836;28;20163;-81
2022/01/30 08:26:24;;;;;;;22.33;4.18;;;;;;;2.44;94.19;103054.78;5054296;28;20040;-81
2022/01/30 08:28:50;;;;;;;19.65;3.80;;;;;;;2.43;93.80;103063.34;5052253;28;20488;-81
2022/01/30 08:31:15;;;;;;;19.73;3.35;;;;;;;2.45;93.37;103048.84;5052580;28;20029;-81
2022/01/30 08:33:41;;;;;;;16.13;3.72;;;;;;;2.55;93.07;103056.19;5049995;28;20468;-81
2022/01/30 08:36:06;;;;;;;15.82;3.17;;;;;;;2.60;93.13;103050.34;5049491;28;20029;-80
2022/01/30 08:38:32;;;;;;;23.73;3.13;;;;;;;2.65;93.09;103052.31;5044091;28;20498;-81
2022/01/30 08:40:57;;;;;;;28.05;3.20;;;;;;;2.73;93.14;103055.22;5049864;28;20112;-81
2022/01/30 08:43:22;;;;;;;22.15;3.42;;;;;;;2.83;92.61;103059.09;5053437;28;20106;-81
2022/01/30 08:45:50;;;;;;;18.65;3.13;;;;;;;2.99;92.50;103049.50;5037073;28;20038;-81
2022/01/30 08:48:16;;;;;;;19.73;3.25;;;;;;;3.21;92.25;103058.16;5034314;28;20021;-81
2022/01/30 08:50:41;;;;;;;22.35;3.58;;;;;;;3.31;90.96;103047.41;5046506;28;20044;-81
2022/01/30 08:53:06;;;;;;;21.48;3.78;;;;;;;3.41;89.19;103048.69;5041247;28;20036;-80
2022/01/30 08:55:33;;;;;;;19.67;3.30;;;;;;;3.49;90.29;103047.28;5033831;28;20035;-81
2022/01/30 08:58:00;;;;;;;18.67;3.15;;;;;;;3.62;88.69;103052.09;5033110;28;20045;-81
2022/01/30 09:00:25;;;;;;;23.45;3.83;;;;;;;3.70;88.93;103049.84;5045446;28;20029;-81
2022/01/30 09:02:51;;;;;;;21.33;3.67;;;;;;;3.68;88.09;103034.31;5052736;28;20025;-82
2022/01/30 09:05:17;;;;;;;18.48;3.03;;;;;;;3.76;87.47;103050.09;5048273;28;20033;-81
2022/01/30 09:07:42;;;;;;;27.58;3.83;;;;;;;3.84;87.36;103056.44;5046774;28;20043;-81
2022/01/30 09:10:10;;;;;;;20.13;3.55;;;;;;;3.92;86.22;103057.63;5051726;28;20055;-82
2022/01/30 09:12:36;;;;;;;20.80;3.20;;;;;;;4.00;85.84;103068.25;5044753;28;20105;-80
2022/01/30 09:15:06;;;;;;;24.50;4.13;;;;;;;4.14;85.07;103068.78;5045113;28;20444;-80
2022/01/30 09:17:32;;;;;;;26.65;4.55;;;;;;;4.19;84.03;103073.31;5040295;28;20053;-80
2022/01/30 09:19:57;;;;;;;23.30;4.07;;;;;;;4.18;83.45;103066.38;5035909;28;20432;-81
2022/01/30 09:22:23;;;;;;;26.23;3.85;;;;;;;4.35;84.64;103085.09;5040793;28;20036;-80
2022/01/30 09:24:49;;;;;;;24.65;3.50;;;;;;;4.43;83.96;103083.69;5046566;28;20029;-81
2022/01/30 09:27:15;;;;;;;21.48;3.53;;;;;;;4.57;84.27;103091.06;5050514;28;20021;-80
2022/01/30 09:29:42;;;;;;;24.70;4.22;;;;;;;4.66;82.96;103081.94;5044889;28;20527;-81
2022/01/30 09:32:07;;;;;;;23.83;4.70;;;;;;;4.86;82.12;103074.91;5044810;28;20029;-81
2022/01/30 09:34:33;;;;;;;24.92;3.60;;;;;;;4.91;79.80;103078.56;5042121;28;20066;-80
2022/01/30 09:36:59;;;;;;;17.15;4.53;;;;;;;4.91;80.07;103080.25;5040654;28;20114;-80
2022/01/30 09:39:25;;;;;;;23.08;3.90;;;;;;;5.03;80.01;103087.56;5036643;28;20031;-80
2022/01/30 09:41:53;;;;;;;20.05;3.45;;;;;;;5.15;78.59;103099.22;5042703;28;20104;-80
2022/01/30 09:44:20;;;;;;;16.25;4.78;;;;;;;5.26;78.47;103101.28;5032931;28;20117;-80
2022/01/30 09:46:46;;;;;;;21.75;3.97;;;;;;;5.24;78.25;103098.66;5050265;28;20077;-80
2022/01/30 09:49:12;;;;;;;20.63;3.90;;;;;;;5.25;77.61;103092.66;5052777;28;20496;-80
2022/01/30 09:51:40;;;;;;;25.30;4.15;;;;;;;5.32;76.30;103097.19;5052767;28;20053;-80
2022/01/30 09:54:08;;;;;;;23.27;3.60;;;;;;;5.44;77.40;103101.06;5052557;28;20025;-80
2022/01/30 09:56:33;;;;;;;20.95;3.45;;;;;;;5.42;76.36;103107.88;5047765;28;20040;-79
2022/01/30 09:59:01;;;;;;;19.98;3.80;;;;;;;5.43;76.17;103099.25;5053328;28;20127;-80
2022/01/30 10:01:32;;;;;;;22.88;3.70;;;;;;;5.51;75.91;103114.22;5041147;28;20380;-80
2022/01/30 10:03:58;;;;;;;24.10;4.18;;;;;;;5.54;75.67;103097.94;5039266;28;20028;-80
2022/01/30 10:06:28;;;;;;;22.77;3.50;;;;;;;5.54;73.94;103104.00;5051135;28;20128;-79
2022/01/30 10:08:56;;;;;;;25.85;4.70;;;;;;;5.47;75.42;103108.91;5052585;28;20078;-80
2022/01/30 10:11:33;;;;;;;21.33;3.88;;;;;;;5.58;76.10;103118.78;5051882;28;20434;-79
2022/01/30 10:14:01;;;;;;;20.90;3.70;;;;;;;5.71;74.96;103129.53;5037318;28;20036;-79
2022/01/30 10:16:26;;;;;;;22.50;4.07;;;;;;;5.75;74.33;103124.50;5051510;28;20025;-79
2022/01/30 10:18:52;;;;;;;24.92;4.53;;;;;;;5.80;74.17;103135.91;5051428;28;20444;-80
2022/01/30 10:21:18;;;;;;;24.17;4.30;;;;;;;5.84;74.59;103131.72;5051446;28;20033;-80
2022/01/30 10:23:44;;;;;;;26.80;4.50;;;;;;;5.87;75.16;103118.88;5044539;28;20040;-79
2022/01/30 10:26:12;;;;;;;24.52;3.90;;;;;;;6.04;73.88;103135.84;5050934;28;20119;-81
2022/01/30 10:28:40;;;;;;;26.35;3.97;;;;;;;6.02;72.43;103132.34;5048344;28;20514;-81
2022/01/30 10:31:07;;;;;;;21.08;4.25;;;;;;;5.94;74.89;103128.63;5040462;28;20026;-80
2022/01/30 10:33:45;;;;;;;23.25;4.18;;;;;;;5.99;75.48;103139.13;5038890;28;20112;-80
2022/01/30 10:36:17;;;;;;;21.88;4.88;;;;;;;6.05;73.60;103123.81;5046697;28;20071;-80
2022/01/30 10:38:52;;;;;;;25.55;4.05;;;;;;;6.01;73.42;103117.63;5043416;28;20020;-80
2022/01/30 10:41:20;;;;;;;19.05;4.10;;;;;;;6.07;72.73;103135.94;5052018;28;20025;-80
2022/01/30 10:43:56;;;;;;;24.88;4.50;;;;;;;6.17;74.84;103121.56;5042046;28;20045;-80
2022/01/30 10:46:27;;;;;;;27.95;4.70;;;;;;;6.18;72.86;103125.94;5039038;28;20021;-79
2022/01/30 10:49:06;;;;;;;28.05;4.93;;;;;;;6.30;73.75;103128.88;5042260;28;20078;-80
2022/01/30 10:51:34;;;;;;;29.88;4.05;;;;;;;6.48;71.69;103117.34;5032944;28;20045;-79
2022/01/30 10:54:06;;;;;;;23.80;4.30;;;;;;;6.75;71.74;103131.09;5032410;28;20036;-80
2022/01/30 10:56:31;;;;;;;19.38;4.18;;;;;;;6.88;71.63;103126.28;5030475;28;20041;-79
2022/01/30 10:59:10;;;;;;;26.65;4.22;;;;;;;6.86;70.96;103118.44;5032071;28;20485;-79
2022/01/30 11:01:44;;;;;;;26.23;3.85;;;;;;;6.80;69.80;103126.94;5032019;28;20029;-79
2022/01/30 11:04:30;;;;;;;20.92;3.88;;;;;;;6.91;71.29;103116.00;5031259;28;20156;-79
2022/01/30 11:07:01;;;;;;;18.50;3.60;;;;;;;7.00;69.86;103100.69;5032166;28;20247;-79
2022/01/30 11:09:32;;;;;;;24.92;4.68;;;;;;;6.97;68.33;103108.38;5031431;28;20048;-79
2022/01/30 11:12:02;;;;;;;27.40;4.72;;;;;;;6.88;69.67;103101.22;5031334;28;20025;-79
2022/01/30 11:14:38;;;;;;;28.83;4.50;;;;;;;6.86;68.74;103109.78;5031513;28;20612;-79
2022/01/30 11:17:05;;;;;;;24.30;3.80;;;;;;;6.67;66.63;103106.69;5031375;28;20037;-79
2022/01/30 11:19:33;;;;;;;27.45;4.60;;;;;;;6.46;66.99;103093.09;5031110;28;20025;-79
2022/01/30 11:22:19;;;;;;;17.20;4.47;;;;;;;6.42;68.19;103089.53;5031100;28;20036;-79
2022/01/30 11:24:49;;;;;;;24.23;4.57;;;;;;;6.55;69.53;103098.53;5030987;28;20183;-79
2022/01/30 11:27:17;;;;;;;23.80;3.92;;;;;;;6.71;67.07;103092.97;5031449;28;20479;-80
2022/01/30 11:29:43;;;;;;;30.63;5.18;;;;;;;6.78;66.83;103089.72;5031639;28;20487;-79
2022/01/30 11:32:08;;;;;;;25.33;4.70;;;;;;;7.06;68.46;103086.97;5030839;28;20022;-79
2022/01/30 11:34:39;;;;;;;19.50;3.50;;;;;;;7.26;66.64;103072.84;5031513;28;20119;-79
2022/01/30 11:37:06;;;;;;;27.42;4.22;;;;;;;7.44;64.44;103080.22;5031950;28;20120;-79
2022/01/30 11:39:31;;;;;;;26.65;4.47;;;;;;;7.57;64.19;103084.88;5030462;28;20030;-79
2022/01/30 11:42:09;;;;;;;27.25;4.25;;;;;;;7.63;65.11;103086.75;5031701;28;20354;-79
2022/01/30 11:44:34;;;;;;;21.52;4.40;;;;;;;7.60;64.92;103071.09;5031246;28;20053;-79
2022/01/30 11:47:02;;;;;;;24.40;4.40;;;;;;;7.67;64.64;103068.66;5030778;28;20041;-79
2022/01/30 11:49:58;;;;;;;26.45;4.32;;;;;;;7.67;65.54;103079.06;5031262;28;20030;-79
2022/01/30 11:52:50;;;;;;;18.80;4.40;;;;;;;7.62;65.86;103072.88;5030714;28;20026;-79
2022/01/30 11:55:38;;;;;;;18.02;3.92;;;;;;;7.63;65.28;103071.16;5031306;28;20025;-79
2022/01/30 11:58:03;;;;;;;29.05;4.57;;;;;;;7.67;63.80;103066.06;5031755;28;20033;-80
2022/01/30 12:00:41;;;;;;;22.65;4.35;;;;;;;7.74;62.25;103065.38;5030477;28;20032;-79
2022/01/30 12:03:26;;;;;;;21.95;3.78;;;;;;;7.78;61.56;103057.66;5031619;28;20072;-79
2022/01/30 12:05:52;;;;;;;19.85;3.42;;;;;;;7.80;61.54;103062.06;5031495;28;20092;-79
2022/01/30 12:08:44;;;;;;;24.23;3.60;;;;;;;7.97;63.41;103070.22;5030556;28;20113;-79
2022/01/30 12:11:34;;;;;;;23.50;4.40;;;;;;;8.14;61.72;103068.00;5031279;28;20056;-79